createdAt,value
2017-09-19T00:01:12.603Z,10.86
2017-09-19T00:03:40.954Z,10.95
2017-09-19T00:06:09.275Z,10.93
2017-09-19T00:08:37.604Z,10.99
2017-09-19T00:11:05.946Z,11.08
2017-09-19T00:13:35.038Z,11.13
2017-09-19T00:16:03.389Z,11.16
2017-09-19T00:18:31.717Z,11.19
2017-09-19T00:21:00.839Z,11.10
2017-09-19T00:23:29.158Z,11.18
2017-09-19T00:25:57.482Z,11.12
2017-09-19T00:28:25.827Z,11.16
2017-09-19T00:30:54.150Z,11.25
2017-09-19T00:33:22.473Z,11.27
2017-09-19T00:35:50.825Z,11.24
2017-09-19T00:38:19.151Z,11.07
2017-09-19T00:40:47.584Z,11.15
2017-09-19T00:43:15.928Z,11.20
2017-09-19T00:45:45.011Z,11.27
2017-09-19T00:48:13.335Z,11.31
2017-09-19T00:50:41.686Z,11.31
2017-09-19T00:53:10.774Z,11.28
2017-09-19T00:55:39.888Z,11.27
2017-09-19T00:58:08.979Z,11.28
2017-09-19T01:00:38.066Z,11.28
2017-09-19T01:03:07.177Z,11.21
2017-09-19T01:05:36.262Z,11.29
2017-09-19T01:08:05.378Z,11.29
2017-09-19T01:10:34.466Z,11.35
2017-09-19T01:13:03.550Z,11.47
2017-09-19T01:15:31.910Z,11.50
2017-09-19T01:18:00.234Z,11.43
2017-09-19T01:20:29.318Z,11.20
2017-09-19T01:22:58.434Z,11.29
2017-09-19T01:25:26.762Z,11.41
2017-09-19T01:27:55.078Z,11.29
2017-09-19T01:30:24.198Z,11.22
2017-09-19T01:32:52.523Z,11.31
2017-09-19T01:35:20.842Z,11.32
2017-09-19T01:37:49.951Z,11.24
2017-09-19T01:40:18.282Z,11.29
2017-09-19T01:42:46.601Z,11.30
2017-09-19T01:45:15.722Z,11.39
2017-09-19T01:47:44.050Z,11.23
2017-09-19T01:50:12.375Z,11.32
2017-09-19T01:52:40.725Z,11.35
2017-09-19T01:55:09.825Z,11.44
2017-09-19T01:57:38.915Z,11.52
2017-09-19T02:00:08.038Z,11.61
2017-09-19T02:02:36.361Z,11.60
2017-09-19T02:05:04.683Z,11.67
2017-09-19T02:07:33.797Z,11.66
2017-09-19T02:10:02.115Z,11.41
2017-09-19T02:12:30.447Z,11.40
2017-09-19T02:14:59.562Z,11.52
2017-09-19T02:17:27.882Z,11.56
2017-09-19T02:19:56.206Z,11.52
2017-09-19T02:22:25.320Z,11.49
2017-09-19T02:24:53.642Z,11.54
2017-09-19T02:27:21.962Z,11.33
2017-09-19T02:29:51.090Z,11.47
2017-09-19T02:32:19.471Z,11.22
2017-09-19T02:34:47.800Z,11.19
2017-09-19T02:37:16.146Z,11.31
2017-09-19T02:39:44.473Z,11.26
2017-09-19T02:42:13.590Z,11.31
2017-09-19T02:44:41.915Z,11.29
2017-09-19T02:47:10.234Z,11.47
2017-09-19T02:49:39.353Z,11.47
2017-09-19T02:52:07.674Z,11.47
2017-09-19T02:54:36.005Z,11.52
2017-09-19T02:57:04.351Z,11.37
2017-09-19T02:59:32.670Z,11.46
2017-09-19T03:02:01.017Z,11.60
2017-09-19T03:04:30.164Z,11.70
2017-09-19T03:06:58.511Z,11.72
2017-09-19T03:09:27.602Z,11.72
2017-09-19T03:11:56.685Z,11.80
2017-09-19T03:14:25.037Z,11.69
2017-09-19T03:16:54.283Z,11.67
2017-09-19T03:19:23.395Z,11.70
2017-09-19T03:21:51.722Z,11.57
2017-09-19T03:24:20.047Z,11.72
2017-09-19T03:26:49.158Z,11.82
2017-09-19T03:29:17.483Z,11.85
2017-09-19T03:31:45.835Z,11.89
2017-09-19T03:34:14.166Z,11.89
2017-09-19T03:36:42.489Z,11.81
2017-09-19T03:39:10.838Z,11.80
2017-09-19T03:41:39.930Z,11.78
2017-09-19T03:44:09.042Z,11.77
2017-09-19T03:46:38.131Z,11.73
2017-09-19T03:49:07.240Z,11.71
2017-09-19T03:51:36.330Z,11.71
2017-09-19T03:54:05.443Z,11.75
2017-09-19T03:56:33.765Z,11.49
2017-09-19T03:59:02.086Z,11.35
2017-09-19T04:01:31.203Z,11.46
2017-09-19T04:03:59.530Z,11.55
2017-09-19T04:06:27.854Z,11.52
2017-09-19T04:08:57.446Z,11.61
2017-09-19T04:11:26.534Z,11.54
2017-09-19T04:13:54.886Z,11.51
2017-09-19T04:16:23.989Z,11.57
2017-09-19T04:18:52.314Z,11.57
2017-09-19T04:21:21.430Z,11.63
2017-09-19T04:23:49.788Z,11.45
2017-09-19T04:26:18.884Z,11.48
2017-09-19T04:28:47.978Z,11.40
2017-09-19T04:31:17.094Z,11.47
2017-09-19T04:33:45.426Z,11.28
2017-09-19T04:36:13.742Z,11.45
2017-09-19T04:38:42.862Z,11.39
2017-09-19T04:41:11.187Z,11.51
2017-09-19T04:43:39.534Z,11.67
2017-09-19T04:46:07.858Z,11.75
2017-09-19T04:48:36.206Z,11.75
2017-09-19T04:51:04.530Z,11.71
2017-09-19T04:53:33.623Z,11.80
2017-09-19T04:56:02.742Z,11.79
2017-09-19T04:58:31.066Z,11.49
2017-09-19T05:00:59.418Z,11.38
2017-09-19T05:03:27.742Z,11.29
2017-09-19T05:05:56.091Z,11.21
2017-09-19T05:08:24.425Z,11.40
2017-09-19T05:10:53.512Z,11.29
2017-09-19T05:13:21.866Z,11.08
2017-09-19T05:15:50.190Z,11.08
2017-09-19T05:18:19.282Z,11.02
2017-09-19T05:20:48.394Z,11.10
2017-09-19T05:23:18.546Z,11.25
2017-09-19T05:25:47.415Z,11.33
2017-09-19T05:28:15.771Z,11.52
2017-09-19T05:30:44.863Z,11.58
2017-09-19T05:33:13.186Z,11.68
2017-09-19T05:35:41.539Z,11.66
2017-09-19T05:38:10.634Z,11.49
2017-09-19T05:40:39.728Z,11.35
2017-09-19T05:43:08.842Z,11.53
2017-09-19T05:45:37.167Z,11.56
2017-09-19T05:48:05.498Z,11.72
2017-09-19T05:50:34.610Z,11.83
2017-09-19T05:53:02.934Z,11.64
2017-09-19T05:55:31.251Z,11.67
2017-09-19T05:57:59.611Z,11.79
2017-09-19T06:00:27.937Z,11.86
2017-09-19T06:02:56.263Z,11.90
2017-09-19T06:05:26.119Z,12.04
2017-09-19T06:07:54.445Z,11.80
2017-09-19T06:10:22.771Z,11.77
2017-09-19T06:12:51.887Z,11.54
2017-09-19T06:15:20.208Z,11.57
2017-09-19T06:17:48.530Z,11.66
2017-09-19T06:20:16.877Z,11.79
2017-09-19T06:22:45.210Z,11.88
2017-09-19T06:25:13.535Z,11.77
2017-09-19T06:27:41.882Z,11.77
2017-09-19T06:30:10.199Z,11.88
2017-09-19T06:32:38.529Z,11.90
2017-09-19T06:35:06.887Z,11.85
2017-09-19T06:37:35.215Z,11.86
2017-09-19T06:40:03.538Z,12.05
2017-09-19T06:42:32.662Z,12.11
2017-09-19T06:45:00.987Z,12.07
2017-09-19T06:47:29.303Z,12.28
2017-09-19T06:49:57.658Z,12.30
2017-09-19T06:52:25.983Z,12.33
2017-09-19T06:54:54.299Z,12.53
2017-09-19T06:57:22.652Z,12.36
2017-09-19T06:59:50.978Z,12.44
2017-09-19T07:02:19.306Z,12.56
2017-09-19T07:04:47.653Z,12.71
2017-09-19T07:07:16.749Z,12.65
2017-09-19T07:09:45.838Z,12.65
2017-09-19T07:12:14.951Z,12.78
2017-09-19T07:14:44.032Z,12.82
2017-09-19T07:17:13.120Z,12.86
2017-09-19T07:19:41.470Z,13.04
2017-09-19T07:22:09.786Z,12.98
2017-09-19T07:24:38.108Z,12.67
2017-09-19T07:27:06.458Z,12.70
2017-09-19T07:29:35.546Z,12.79
2017-09-19T07:32:03.973Z,12.90
2017-09-19T07:34:32.314Z,12.78
2017-09-19T07:37:02.426Z,13.02
2017-09-19T07:39:30.752Z,13.01
2017-09-19T07:41:59.091Z,12.99
2017-09-19T07:44:28.178Z,13.02
2017-09-19T07:46:56.498Z,13.21
2017-09-19T07:49:24.850Z,13.27
2017-09-19T07:51:53.938Z,13.31
2017-09-19T07:54:22.263Z,13.18
2017-09-19T07:56:50.614Z,13.26
2017-09-19T07:59:19.701Z,13.27
2017-09-19T08:01:48.803Z,13.28
2017-09-19T08:04:17.914Z,13.28
2017-09-19T08:06:47.002Z,13.26
2017-09-19T08:09:16.086Z,13.26
2017-09-19T08:11:44.434Z,13.10
2017-09-19T08:14:12.755Z,13.25
2017-09-19T08:16:41.842Z,13.46
2017-09-19T08:19:10.186Z,13.50
2017-09-19T08:21:38.507Z,13.75
2017-09-19T08:24:07.652Z,13.73
2017-09-19T08:26:35.992Z,13.59
2017-09-19T08:29:05.082Z,13.58
2017-09-19T08:31:33.405Z,13.54
2017-09-19T08:34:01.755Z,13.75
2017-09-19T08:36:30.835Z,13.80
2017-09-19T08:38:59.150Z,14.06
2017-09-19T08:41:27.497Z,14.19
2017-09-19T08:43:56.623Z,14.51
2017-09-19T08:46:24.950Z,14.39
2017-09-19T08:48:53.299Z,14.33
2017-09-19T08:51:21.624Z,14.57
2017-09-19T08:53:49.942Z,14.73
2017-09-19T08:56:18.282Z,14.53
2017-09-19T08:58:46.610Z,14.96
2017-09-19T09:01:14.928Z,15.27
2017-09-19T09:03:43.281Z,15.39
2017-09-19T09:06:11.598Z,15.64
2017-09-19T09:08:39.946Z,16.18
2017-09-19T09:11:08.262Z,16.29
2017-09-19T09:13:36.579Z,16.35
2017-09-19T09:16:04.918Z,16.37
2017-09-19T09:18:33.238Z,15.92
2017-09-19T09:21:01.560Z,16.48
2017-09-19T09:23:29.915Z,16.40
2017-09-19T09:25:58.230Z,16.20
2017-09-19T09:28:26.554Z,16.21
2017-09-19T09:30:55.663Z,16.91
2017-09-19T09:33:23.986Z,17.19
2017-09-19T09:35:52.303Z,17.50
2017-09-19T09:38:21.410Z,17.47
2017-09-19T09:40:50.491Z,17.45
2017-09-19T09:43:19.605Z,17.55
2017-09-19T09:45:48.687Z,17.24
2017-09-19T09:48:17.776Z,16.93
2017-09-19T09:50:46.123Z,16.27
2017-09-19T09:53:14.443Z,15.80
2017-09-19T09:55:43.530Z,15.81
2017-09-19T10:00:39.502Z,15.79
2017-09-19T10:03:07.823Z,15.67
2017-09-19T10:05:36.170Z,15.78
2017-09-19T10:08:04.488Z,15.56
2017-09-19T10:10:32.814Z,15.26
2017-09-19T10:13:01.937Z,15.13
2017-09-19T10:15:30.263Z,14.66
2017-09-19T10:17:58.583Z,14.74
2017-09-19T10:20:26.922Z,14.72
2017-09-19T10:22:55.261Z,14.81
2017-09-19T10:25:23.579Z,14.84
2017-09-19T10:27:51.926Z,14.88
2017-09-19T10:30:20.242Z,14.98
2017-09-19T10:32:48.568Z,15.09
2017-09-19T10:35:16.910Z,15.31
2017-09-19T10:37:45.231Z,15.37
2017-09-19T10:40:13.554Z,15.50
2017-09-19T10:42:41.907Z,15.66
2017-09-19T10:45:11.465Z,15.55
2017-09-19T10:47:39.780Z,15.90
2017-09-19T10:50:08.126Z,15.79
2017-09-19T10:52:37.212Z,15.69
2017-09-19T10:55:05.538Z,15.80
2017-09-19T10:57:33.883Z,16.08
2017-09-19T11:00:02.970Z,15.94
2017-09-19T11:02:31.301Z,15.75
2017-09-19T11:04:59.646Z,15.89
2017-09-19T11:07:28.734Z,16.11
2017-09-19T11:09:57.059Z,16.13
2017-09-19T11:12:25.406Z,16.29
2017-09-19T11:14:54.499Z,16.51
2017-09-19T11:17:23.585Z,16.51
2017-09-19T11:19:51.926Z,16.85
2017-09-19T11:22:20.243Z,16.83
2017-09-19T11:24:48.570Z,16.83
2017-09-19T11:27:16.921Z,17.18
2017-09-19T11:29:46.002Z,17.48
2017-09-19T11:32:14.324Z,17.40
2017-09-19T11:34:42.669Z,16.82
2017-09-19T11:37:11.760Z,17.43
2017-09-19T11:39:40.091Z,17.68
2017-09-19T11:42:08.438Z,17.95
2017-09-19T11:44:37.525Z,18.04
2017-09-19T11:47:06.634Z,17.85
2017-09-19T11:49:35.756Z,17.68
2017-09-19T11:52:04.078Z,17.71
2017-09-19T11:54:32.398Z,17.79
2017-09-19T11:57:00.760Z,18.01
2017-09-19T11:59:29.850Z,17.82
2017-09-19T12:01:58.172Z,18.33
2017-09-19T12:04:26.521Z,19.21
2017-09-19T12:06:55.602Z,19.92
2017-09-19T12:09:23.921Z,19.99
2017-09-19T12:11:52.266Z,20.29
2017-09-19T12:14:20.600Z,20.69
2017-09-19T12:16:48.921Z,20.80
2017-09-19T12:19:18.373Z,21.22
2017-09-19T12:21:46.691Z,21.25
2017-09-19T12:24:15.018Z,20.87
2017-09-19T12:26:43.370Z,20.42
2017-09-19T12:29:11.698Z,20.00
2017-09-19T12:31:40.018Z,19.74
2017-09-19T12:34:08.368Z,18.90
2017-09-19T12:36:36.682Z,18.60
2017-09-19T12:39:05.017Z,18.31
2017-09-19T12:41:33.362Z,18.07
2017-09-19T12:44:02.466Z,17.95
2017-09-19T12:46:31.548Z,18.10
2017-09-19T12:49:00.638Z,18.17
2017-09-19T12:51:28.987Z,18.18
2017-09-19T12:53:57.335Z,18.06
2017-09-19T12:56:25.655Z,18.00
2017-09-19T12:58:53.971Z,17.93
2017-09-19T13:01:23.131Z,17.79
2017-09-19T13:03:51.461Z,17.59
2017-09-19T13:06:20.547Z,17.53
2017-09-19T13:08:49.657Z,17.47
2017-09-19T13:11:19.980Z,17.34
2017-09-19T13:13:49.098Z,17.11
2017-09-19T13:16:17.420Z,17.04
2017-09-19T13:18:45.740Z,17.11
2017-09-19T13:21:14.858Z,17.09
2017-09-19T13:23:43.181Z,16.81
2017-09-19T13:26:11.502Z,17.28
2017-09-19T13:28:40.622Z,17.56
2017-09-19T13:31:26.714Z,17.70
2017-09-19T13:33:55.759Z,18.09
2017-09-19T13:36:24.084Z,18.59
2017-09-19T13:38:52.408Z,18.94
2017-09-19T13:41:20.760Z,19.60
2017-09-19T13:43:49.080Z,19.79
2017-09-19T13:46:17.409Z,19.62
2017-09-19T13:48:45.755Z,19.33
2017-09-19T13:51:14.842Z,19.04
2017-09-19T13:53:43.202Z,18.82
2017-09-19T13:56:11.527Z,18.67
2017-09-19T13:58:40.609Z,18.45
2017-09-19T14:01:09.728Z,18.39
2017-09-19T14:03:38.052Z,18.34
2017-09-19T14:06:06.374Z,18.39
2017-09-19T14:08:35.478Z,19.73
2017-09-19T14:11:04.566Z,18.91
2017-09-19T14:13:33.645Z,18.65
2017-09-19T14:16:01.992Z,18.43
2017-09-19T14:18:30.319Z,18.28
2017-09-19T14:20:59.512Z,17.81
2017-09-19T14:23:27.851Z,17.74
2017-09-19T14:25:56.167Z,17.01
2017-09-19T14:28:24.596Z,17.22
2017-09-19T14:30:52.937Z,16.99
2017-09-19T14:33:22.038Z,16.98
2017-09-19T14:35:51.146Z,16.93
2017-09-19T14:38:20.232Z,17.01
2017-09-19T14:40:49.316Z,17.00
2017-09-19T14:43:17.667Z,16.96
2017-09-19T14:45:45.990Z,17.01
2017-09-19T14:48:15.098Z,17.22
2017-09-19T14:50:44.217Z,17.29
2017-09-19T14:53:12.534Z,17.43
2017-09-19T14:55:40.890Z,17.63
2017-09-19T14:58:09.216Z,17.76
2017-09-19T15:00:37.547Z,17.84
2017-09-19T15:03:05.894Z,17.68
2017-09-19T15:05:34.978Z,17.78
2017-09-19T15:08:03.306Z,17.79
2017-09-19T15:10:31.653Z,17.86
2017-09-19T15:13:00.742Z,17.88
2017-09-19T15:15:29.826Z,17.85
2017-09-19T15:17:58.174Z,17.85
2017-09-19T15:20:26.498Z,17.81
2017-09-19T15:22:55.607Z,17.73
2017-09-19T15:25:24.694Z,17.68
2017-09-19T15:27:53.787Z,17.55
2017-09-19T15:30:22.904Z,17.45
2017-09-19T15:32:51.994Z,17.33
2017-09-19T15:35:22.352Z,17.22
2017-09-19T15:37:50.666Z,17.19
2017-09-19T15:40:18.982Z,17.16
2017-09-19T15:42:48.087Z,17.09
2017-09-19T15:45:17.165Z,17.03
2017-09-19T15:47:45.516Z,16.94
2017-09-19T15:50:13.931Z,16.86
2017-09-19T15:52:43.011Z,16.57
2017-09-19T15:55:11.355Z,16.68
2017-09-19T15:57:39.678Z,16.67
2017-09-19T16:00:08.010Z,16.74
2017-09-19T16:02:36.355Z,16.82
2017-09-19T16:05:05.449Z,16.88
2017-09-19T16:07:34.541Z,16.74
2017-09-19T16:10:03.653Z,17.15
2017-09-19T16:12:32.751Z,17.51
2017-09-19T16:15:01.834Z,17.89
2017-09-19T16:17:30.950Z,18.24
2017-09-19T16:20:00.042Z,18.35
2017-09-19T16:22:29.134Z,18.29
2017-09-19T16:24:58.244Z,18.23
2017-09-19T16:27:28.242Z,18.06
2017-09-19T16:29:57.331Z,17.92
2017-09-19T16:32:25.677Z,17.77
2017-09-19T16:34:54.012Z,17.53
2017-09-19T16:37:23.106Z,17.38
2017-09-19T16:39:52.232Z,17.30
2017-09-19T16:42:20.550Z,17.15
2017-09-19T16:44:48.880Z,17.02
2017-09-19T16:47:17.227Z,16.89
2017-09-19T16:49:45.555Z,16.63
2017-09-19T16:52:13.909Z,16.64
2017-09-19T16:54:43.011Z,16.50
2017-09-19T16:57:11.343Z,16.31
2017-09-19T16:59:39.698Z,16.15
2017-09-19T17:02:08.022Z,16.00
2017-09-19T17:04:36.370Z,15.77
2017-09-19T17:07:04.696Z,15.71
2017-09-19T17:09:33.795Z,15.58
2017-09-19T17:12:02.915Z,15.57
2017-09-19T17:14:31.262Z,15.58
2017-09-19T17:17:01.515Z,15.45
2017-09-19T17:19:31.703Z,15.26
2017-09-19T17:22:00.094Z,15.32
2017-09-19T17:24:28.450Z,15.29
2017-09-19T17:26:56.779Z,15.26
2017-09-19T17:29:26.118Z,15.18
2017-09-19T17:31:56.477Z,15.14
2017-09-19T17:34:24.865Z,14.99
2017-09-19T17:36:53.967Z,14.82
2017-09-19T17:39:24.051Z,14.63
2017-09-19T17:41:52.440Z,14.66
2017-09-19T17:44:20.760Z,14.40
2017-09-19T17:46:49.859Z,14.28
2017-09-19T17:49:18.978Z,14.30
2017-09-19T17:51:47.309Z,14.43
2017-09-19T17:54:15.665Z,14.50
2017-09-19T17:56:43.988Z,14.50
2017-09-19T17:59:13.071Z,14.52
2017-09-19T18:01:41.423Z,14.52
2017-09-19T18:04:09.755Z,14.50
2017-09-19T18:06:38.866Z,14.36
2017-09-19T18:09:07.199Z,14.24
2017-09-19T18:11:35.550Z,14.30
2017-09-19T18:14:03.867Z,14.33
2017-09-19T18:16:32.211Z,14.30
2017-09-19T18:19:00.530Z,14.13
2017-09-19T18:21:28.872Z,14.00
2017-09-19T18:23:57.191Z,14.02
2017-09-19T18:26:25.511Z,14.08
2017-09-19T18:28:53.855Z,13.99
2017-09-19T18:31:22.946Z,13.95
2017-09-19T18:33:51.291Z,13.90
2017-09-19T18:36:19.619Z,13.89
2017-09-19T18:38:48.706Z,13.84
2017-09-19T18:41:17.060Z,13.84
2017-09-19T18:43:45.382Z,13.78
2017-09-19T18:46:14.498Z,13.73
2017-09-19T18:48:42.823Z,13.66
2017-09-19T18:51:11.167Z,13.54
2017-09-19T18:53:39.554Z,13.44
2017-09-19T18:56:07.903Z,13.26
2017-09-19T18:58:36.991Z,13.21
2017-09-19T19:01:06.083Z,13.21
2017-09-19T19:03:34.427Z,13.14
2017-09-19T19:06:02.752Z,13.09
2017-09-19T19:08:31.858Z,12.99
2017-09-19T19:11:00.951Z,12.96
2017-09-19T19:13:30.062Z,12.93
2017-09-19T19:15:58.475Z,12.67
2017-09-19T19:18:26.790Z,12.62
2017-09-19T19:20:55.140Z,12.48
2017-09-19T19:23:24.222Z,12.40
2017-09-19T19:25:52.599Z,12.37
2017-09-19T19:28:20.919Z,12.26
2017-09-19T19:30:49.249Z,12.27
2017-09-19T19:33:17.643Z,12.19
2017-09-19T19:35:45.954Z,11.94
2017-09-19T19:38:14.288Z,11.95
2017-09-19T19:40:42.630Z,11.98
2017-09-19T19:43:10.962Z,12.00
2017-09-19T19:45:39.338Z,11.99
2017-09-19T19:48:07.678Z,11.91
2017-09-19T19:50:36.018Z,11.88
2017-09-19T19:53:04.351Z,11.88
2017-09-19T19:55:33.462Z,11.95
2017-09-19T19:58:01.787Z,11.98
2017-09-19T20:00:30.143Z,11.88
2017-09-19T20:02:58.467Z,11.85
2017-09-19T20:05:27.566Z,11.93
2017-09-19T20:07:55.918Z,11.89
2017-09-19T20:10:24.243Z,11.85
2017-09-19T20:12:53.360Z,11.58
2017-09-19T20:15:21.681Z,11.71
2017-09-19T20:17:50.006Z,11.71
2017-09-19T20:20:19.126Z,11.67
2017-09-19T20:22:47.449Z,11.58
2017-09-19T20:25:15.798Z,11.51
2017-09-19T20:27:44.126Z,11.37
2017-09-19T20:30:13.222Z,11.42
2017-09-19T20:32:41.577Z,11.34
2017-09-19T20:35:10.882Z,11.11
2017-09-19T20:37:39.248Z,10.95
2017-09-19T20:40:07.575Z,11.06
2017-09-19T20:42:36.662Z,11.06
2017-09-19T20:45:05.778Z,10.99
2017-09-19T20:47:34.875Z,11.02
2017-09-19T20:50:04.009Z,11.05
2017-09-19T20:52:32.330Z,10.86
2017-09-19T20:55:01.430Z,10.46
2017-09-19T20:57:29.775Z,10.37
2017-09-19T20:59:58.094Z,10.47
2017-09-19T21:02:26.524Z,10.56
2017-09-19T21:05:00.318Z,10.64
2017-09-19T21:07:34.146Z,10.64
2017-09-19T21:10:08.483Z,10.68
2017-09-19T21:12:42.306Z,10.54
2017-09-19T21:15:16.186Z,10.50
2017-09-19T21:17:49.962Z,10.54
2017-09-19T21:20:18.234Z,10.53
2017-09-19T21:22:47.322Z,10.45
2017-09-19T21:25:16.437Z,10.38
2017-09-19T21:27:45.698Z,10.35
2017-09-19T21:30:14.083Z,10.37
2017-09-19T21:32:42.410Z,10.44
2017-09-19T21:35:10.740Z,10.55
2017-09-19T21:37:39.090Z,10.71
2017-09-19T21:40:07.424Z,10.82
2017-09-19T21:42:36.542Z,10.91
2017-09-19T21:45:04.884Z,10.86
2017-09-19T21:47:33.212Z,10.96
2017-09-19T21:50:01.558Z,10.84
2017-09-19T21:52:31.417Z,10.80
2017-09-19T21:54:59.841Z,10.57
2017-09-19T21:57:28.258Z,10.56
2017-09-19T21:59:57.078Z,10.63
2017-09-19T22:02:26.244Z,10.57
2017-09-19T22:04:54.623Z,10.60
2017-09-19T22:07:23.858Z,10.49
2017-09-19T22:09:52.187Z,10.10
2017-09-19T22:12:21.302Z,9.74
2017-09-19T22:14:50.394Z,10.11
2017-09-19T22:17:19.522Z,10.22
2017-09-19T22:19:48.635Z,10.33
2017-09-19T22:22:17.183Z,10.33
2017-09-19T22:24:45.513Z,10.35
2017-09-19T22:27:13.850Z,10.39
2017-09-19T22:29:42.201Z,10.33
2017-09-19T22:32:10.534Z,10.38
2017-09-19T22:34:38.864Z,10.34
2017-09-19T22:37:07.986Z,10.42
2017-09-19T22:39:36.310Z,10.40
2017-09-19T22:42:04.639Z,10.28
2017-09-19T22:44:32.989Z,10.21
2017-09-19T22:47:01.307Z,10.24
2017-09-19T22:49:29.627Z,10.38
2017-09-19T22:51:57.979Z,10.12
2017-09-19T22:54:26.313Z,10.12
2017-09-19T22:56:54.674Z,10.16
2017-09-19T22:59:22.995Z,10.20
2017-09-19T23:01:52.090Z,10.04
2017-09-19T23:04:21.196Z,9.94
2017-09-19T23:06:49.519Z,10.07
2017-09-19T23:09:18.603Z,10.15
2017-09-19T23:11:46.942Z,10.17
2017-09-19T23:14:16.023Z,10.11
2017-09-19T23:16:44.344Z,10.15
2017-09-19T23:19:12.690Z,10.12
2017-09-19T23:21:41.779Z,9.82
2017-09-19T23:24:10.103Z,9.35
2017-09-19T23:26:38.442Z,9.27
2017-09-19T23:29:07.532Z,9.41
2017-09-19T23:31:35.877Z,9.49
2017-09-19T23:34:04.196Z,9.51
2017-09-19T23:36:32.527Z,9.54
2017-09-19T23:39:00.867Z,9.58
2017-09-19T23:41:29.946Z,9.65
2017-09-19T23:43:58.281Z,9.72
2017-09-19T23:46:26.600Z,9.54
2017-09-19T23:48:54.943Z,9.66
2017-09-19T23:51:23.258Z,9.56
2017-09-19T23:53:51.604Z,9.20
2017-09-19T23:56:19.914Z,9.35
2017-09-19T23:58:48.230Z,9.31
